Manchester, Vermont
Current Conditions -  °F | °C
As of 6:54 AM on Thursday 27 Nov 2014 (Local Time) from KDDH Reporting Station
Overcast Overcast  
Wind Chill: 23°   Ceiling: 1000
Heat Index: 28°   Visibility: 10mi
Dew Point: 25°   Wind: 5mph
Humidity: 88%   Direction: 320°NW
Pressure: 29.91"   Gusts: NA
Location:  43.16°N, 73.07°W
Report Text: KDDH 271154Z AUTO 32004KT 10SM OVC010 M02/M04 A2991 RMK AO2 SLP138 60000 70061 I1000 I6000 T10221039 11017 21022 52016
Loading
Personal Weather Stations






























Interactive Weather Map New forecast layout! Learn more

10-Day Weather Forecast

Advertisements
Track Severe Weather on mobile